Time;durP1;ratioP1;P1;durP2;ratioP2;P2;SDS_P1;SDS_P2;PMS_P1;PMS_P2;Temp;Humidity;BMP_temperature;BMP_pressure;BME280_temperature;BME280_humidity;BME280_pressure;Samples;Min_cycle;Max_cycle;Signal;HPM_P1;HPM_P2
2022/08/19 00:00:20;;;;;;;9.82;8.90;;;;;;;22.73;59.06;96203.34;5108639;22;20136;-79
2022/08/19 00:02:53;;;;;;;9.60;8.70;;;;;;;22.73;60.27;96194.59;5163878;22;20067;-79
2022/08/19 00:05:43;;;;;;;10.68;9.68;;;;;;;22.72;61.49;96196.44;5099584;28;20097;-81
2022/08/19 00:08:19;;;;;;;10.95;9.82;;;;;;;22.71;61.04;96191.41;5236215;22;20064;-79
2022/08/19 00:10:52;;;;;;;10.20;9.30;;;;;;;22.67;59.60;96193.00;5229854;22;20036;-79
2022/08/19 00:13:23;;;;;;;10.48;9.52;;;;;;;22.63;60.48;96201.53;5098563;28;20097;-79
2022/08/19 00:15:58;;;;;;;11.32;10.30;;;;;;;22.61;59.60;96205.50;5098494;28;20052;-78
2022/08/19 00:18:36;;;;;;;11.02;9.93;;;;;;;22.61;62.01;96200.19;4721320;26;20055;-79
2022/08/19 00:21:09;;;;;;;11.88;10.77;;;;;;;22.59;61.24;96213.75;5079003;28;20109;-79
2022/08/19 00:23:43;;;;;;;12.63;10.80;;;;;;;22.58;60.53;96200.72;5079277;28;20029;-81
2022/08/19 00:26:15;;;;;;;13.07;11.87;;;;;;;22.55;60.71;96207.38;5203291;22;20040;-79
2022/08/19 00:28:49;;;;;;;11.27;10.07;;;;;;;22.52;60.28;96207.91;5159503;22;20300;-79
2022/08/19 00:31:20;;;;;;;12.95;11.65;;;;;;;22.51;61.17;96206.31;5227120;22;20060;-79
2022/08/19 00:33:51;;;;;;;11.82;10.73;;;;;;;22.50;62.57;96199.41;5152103;22;20058;-78
2022/08/19 00:36:23;;;;;;;13.70;12.35;;;;;;;22.47;61.19;96189.28;5107288;22;20048;-79
2022/08/19 00:38:55;;;;;;;12.82;11.63;;;;;;;22.44;61.95;96186.41;5095090;28;20033;-79
2022/08/19 00:44:22;;;;;;;14.55;13.13;;;;;;;22.39;61.68;96184.50;1315997;26;20145;-79
2022/08/19 00:47:00;;;;;;;13.15;11.70;;;;;;;22.36;62.86;96177.88;4999473;28;20047;-80
2022/08/19 00:49:35;;;;;;;13.48;12.23;;;;;;;22.34;62.28;96176.56;4999347;28;20051;-80
2022/08/19 00:52:16;;;;;;;14.50;13.00;;;;;;;22.31;61.93;96185.06;4998256;28;20039;-78
2022/08/19 00:54:52;;;;;;;13.23;11.98;;;;;;;22.30;63.60;96178.16;4998448;28;20051;-79
2022/08/19 00:57:32;;;;;;;14.03;12.63;;;;;;;22.27;62.69;96184.00;4999157;28;20035;-80
2022/08/19 01:00:13;;;;;;;14.23;12.82;;;;;;;22.26;65.89;96187.72;4999072;28;20045;-80
2022/08/19 01:05:37;;;;;;;14.68;13.15;;;;;;;22.26;65.88;96206.31;4998259;28;20050;-78
2022/08/19 01:08:25;;;;;;;14.57;13.00;;;;;;;22.25;65.91;96212.69;4998030;28;20111;-78
2022/08/19 01:11:10;;;;;;;15.05;13.32;;;;;;;22.24;65.14;96205.78;4998306;28;20098;-79
2022/08/19 01:13:44;;;;;;;14.20;12.57;;;;;;;22.26;66.03;96216.94;4997488;28;20053;-79
2022/08/19 01:16:22;;;;;;;15.32;13.15;;;;;;;22.25;65.45;96196.75;4998858;28;20034;-81
2022/08/19 01:18:56;;;;;;;15.68;14.02;;;;;;;22.23;64.95;96198.88;4999209;28;20041;-80
2022/08/19 01:21:33;;;;;;;14.45;12.98;;;;;;;22.20;64.50;96190.34;4999052;28;20043;-78
2022/08/19 01:24:10;;;;;;;14.85;13.43;;;;;;;22.17;63.60;96196.19;4998218;28;20114;-79
2022/08/19 01:26:45;;;;;;;14.93;13.52;;;;;;;22.15;63.74;96190.34;4997566;28;20058;-79
2022/08/19 01:29:22;;;;;;;14.15;12.65;;;;;;;22.16;66.34;96199.91;4997248;28;20047;-78
2022/08/19 01:31:54;;;;;;;14.82;13.32;;;;;;;22.16;66.49;96199.91;4997757;28;20054;-79
2022/08/19 01:34:27;;;;;;;14.60;13.25;;;;;;;22.14;65.89;96204.69;4998002;28;20074;-78
2022/08/19 01:37:01;;;;;;;16.05;14.55;;;;;;;22.12;65.34;96206.00;4998185;28;20058;-78
2022/08/19 01:39:41;;;;;;;13.68;12.27;;;;;;;22.11;65.46;96201.78;4997881;28;20034;-79
2022/08/19 01:42:12;;;;;;;13.50;12.20;;;;;;;22.10;66.92;96200.97;4994458;28;20084;-80
2022/08/19 01:44:40;;;;;;;14.70;12.98;;;;;;;22.11;66.93;96199.13;4994056;28;20042;-79
2022/08/19 01:47:09;;;;;;;13.88;12.57;;;;;;;22.10;67.04;96208.94;4994017;28;20043;-78
2022/08/19 01:49:38;;;;;;;14.45;13.10;;;;;;;22.09;67.01;96195.94;4993924;28;20051;-79
2022/08/19 01:52:06;;;;;;;14.15;12.75;;;;;;;22.08;67.30;96199.63;4993353;28;20055;-79
2022/08/19 01:54:35;;;;;;;15.45;13.85;;;;;;;22.03;65.64;96187.16;4993538;28;20043;-79
2022/08/19 01:57:07;;;;;;;14.15;12.75;;;;;;;22.00;66.08;96185.03;4994018;28;20051;-79
2022/08/19 01:59:36;;;;;;;14.27;12.95;;;;;;;21.96;65.93;96194.59;4996780;28;20054;-79
2022/08/19 02:02:07;;;;;;;15.60;14.07;;;;;;;21.94;67.30;96191.41;4998797;28;20047;-78
2022/08/19 02:04:35;;;;;;;15.00;13.50;;;;;;;21.94;66.72;96196.72;4998569;28;20082;-80
2022/08/19 02:07:02;;;;;;;13.30;11.90;;;;;;;21.92;66.64;96196.97;4998688;28;20050;-78
2022/08/19 02:09:31;;;;;;;15.13;13.60;;;;;;;21.91;66.33;96202.53;4998462;28;20062;-79
2022/08/19 02:12:00;;;;;;;15.25;13.75;;;;;;;21.90;67.13;96207.06;4997418;28;20034;-81
2022/08/19 02:14:28;;;;;;;15.02;13.43;;;;;;;21.89;66.16;96207.34;4999411;28;20058;-82
2022/08/19 02:16:56;;;;;;;16.00;14.30;;;;;;;21.87;66.21;96214.75;4999864;28;20055;-82
2022/08/19 02:19:23;;;;;;;15.48;13.88;;;;;;;21.86;67.22;96205.19;4999148;28;20093;-82
2022/08/19 02:21:51;;;;;;;16.15;14.55;;;;;;;21.85;67.06;96219.53;4998485;28;20043;-81
2022/08/19 02:24:19;;;;;;;14.82;13.32;;;;;;;21.81;66.26;96217.38;4998584;28;20047;-82
2022/08/19 02:26:46;;;;;;;14.95;13.45;;;;;;;21.81;67.25;96225.34;4998120;28;20043;-82
2022/08/19 02:29:15;;;;;;;15.40;13.18;;;;;;;21.81;66.94;96229.88;4998376;28;20054;-82
2022/08/19 02:31:43;;;;;;;14.25;12.85;;;;;;;21.81;67.61;96232.53;4997894;28;20050;-82
2022/08/19 02:34:11;;;;;;;14.88;13.43;;;;;;;21.80;66.96;96231.75;4998724;28;20123;-81
2022/08/19 02:36:38;;;;;;;16.05;14.48;;;;;;;21.76;65.71;96230.66;5000302;28;20057;-81
2022/08/19 02:39:08;;;;;;;16.95;14.82;;;;;;;21.71;65.11;96219.22;5001162;28;20094;-82
2022/08/19 02:41:36;;;;;;;14.85;13.38;;;;;;;21.71;65.33;96221.88;5000954;28;20166;-81
2022/08/19 02:44:04;;;;;;;17.13;13.43;;;;;;;21.70;66.25;96222.94;4999956;28;20038;-82
2022/08/19 02:46:53;;;;;;;15.93;14.27;;;;;;;21.68;65.99;96233.81;4998945;28;20078;-82
2022/08/19 02:49:21;;;;;;;16.55;13.82;;;;;;;21.66;65.71;96233.28;4999152;28;20061;-81
2022/08/19 02:51:49;;;;;;;15.20;13.70;;;;;;;21.65;66.15;96234.34;4999079;28;20058;-82
2022/08/19 02:54:16;;;;;;;15.95;14.23;;;;;;;21.64;66.74;96211.50;4999053;28;20047;-82
2022/08/19 02:56:44;;;;;;;14.43;13.02;;;;;;;21.63;66.39;96230.38;4999116;28;20074;-82
2022/08/19 02:59:12;;;;;;;15.40;13.80;;;;;;;21.60;65.42;96221.06;4998908;28;20051;-82
2022/08/19 03:01:41;;;;;;;14.90;13.05;;;;;;;21.60;67.32;96226.34;4999043;28;20055;-82
2022/08/19 03:04:14;;;;;;;15.48;13.65;;;;;;;21.58;66.56;96225.81;4999746;28;20038;-82
2022/08/19 03:06:44;;;;;;;18.02;14.57;;;;;;;21.55;65.32;96226.34;4999412;28;20097;-82
2022/08/19 03:09:13;;;;;;;15.40;13.90;;;;;;;21.52;65.82;96232.97;4998940;28;20042;-82
2022/08/19 03:11:41;;;;;;;14.77;13.13;;;;;;;21.51;66.13;96222.63;4998725;28;20030;-82
2022/08/19 03:14:10;;;;;;;15.00;13.50;;;;;;;21.49;66.73;96214.13;4998580;28;20051;-81
2022/08/19 03:16:42;;;;;;;16.05;14.25;;;;;;;21.47;66.69;96208.28;4998373;28;20050;-82
2022/08/19 03:19:11;;;;;;;;;;;;;;;21.44;66.98;96203.50;4999423;28;20050;-81
2022/08/19 03:21:39;;;;;;;15.93;14.40;;;;;;;21.39;66.68;96201.59;4998270;28;19929;-82
2022/08/19 03:24:09;;;;;;;15.15;13.63;;;;;;;21.34;68.03;96194.41;4998547;28;20051;-81
2022/08/19 03:26:40;;;;;;;17.10;15.27;;;;;;;21.32;67.09;96196.53;4998598;28;20066;-82
2022/08/19 03:29:10;;;;;;;15.63;13.98;;;;;;;21.30;66.81;96198.66;4998510;28;20051;-82
2022/08/19 03:31:41;;;;;;;18.02;15.23;;;;;;;21.28;66.63;96200.75;4998590;28;20078;-82
2022/08/19 03:34:25;;;;;;;17.45;14.32;;;;;;;21.26;66.67;96210.84;4998395;28;20082;-82
2022/08/19 03:36:55;;;;;;;16.38;14.15;;;;;;;21.26;67.29;96212.69;4999797;28;20050;-81
2022/08/19 03:39:23;;;;;;;15.38;13.88;;;;;;;21.25;67.84;96219.81;5000236;28;20051;-81
2022/08/19 03:41:52;;;;;;;15.52;13.95;;;;;;;21.23;67.06;96214.00;4999231;28;20031;-82
2022/08/19 03:44:42;;;;;;;17.42;15.63;;;;;;;21.22;67.46;96211.63;4998277;28;20074;-81
2022/08/19 03:47:12;;;;;;;15.63;14.02;;;;;;;21.20;68.16;96212.66;4998299;28;20074;-82
2022/08/19 03:49:41;;;;;;;15.20;13.80;;;;;;;21.20;68.47;96211.88;4998024;28;20038;-82
2022/08/19 03:52:08;;;;;;;18.58;15.13;;;;;;;21.19;68.09;96213.72;4997938;28;20043;-82
2022/08/19 03:54:37;;;;;;;18.10;15.18;;;;;;;21.18;68.24;96219.28;4997608;28;20078;-82
2022/08/19 03:57:05;;;;;;;18.65;14.38;;;;;;;21.19;67.87;96220.88;4998181;28;20102;-82
2022/08/19 03:59:36;;;;;;;17.60;15.80;;;;;;;21.19;69.51;96218.25;4997833;28;20042;-82
2022/08/19 04:02:11;;;;;;;17.42;15.63;;;;;;;21.17;68.62;96215.03;4997852;28;20039;-82
2022/08/19 04:04:43;;;;;;;17.58;15.77;;;;;;;21.15;68.04;96223.25;4998633;28;20063;-82
2022/08/19 04:07:15;;;;;;;16.30;14.60;;;;;;;21.15;69.28;96219.81;4998128;28;20046;-82
2022/08/19 04:09:43;;;;;;;17.08;15.25;;;;;;;21.14;68.39;96216.38;4998451;28;20139;-82
2022/08/19 04:12:11;;;;;;;16.73;15.02;;;;;;;21.12;67.88;96212.34;4997441;28;20091;-82
2022/08/19 04:14:39;;;;;;;18.17;16.38;;;;;;;21.11;67.94;96216.06;4996355;28;20070;-82
2022/08/19 04:17:06;;;;;;;16.60;14.93;;;;;;;21.09;68.30;96212.88;4997776;28;20035;-83
2022/08/19 04:19:38;;;;;;;16.05;14.43;;;;;;;21.09;68.40;96212.88;4998626;28;20051;-82
2022/08/19 04:22:07;;;;;;;17.00;15.20;;;;;;;21.09;69.03;96204.91;4994224;28;20121;-82
2022/08/19 04:24:35;;;;;;;18.40;16.42;;;;;;;21.08;68.38;96212.09;4995900;28;20288;-82
2022/08/19 04:27:05;;;;;;;16.98;14.88;;;;;;;21.08;69.54;96219.22;4991591;28;20054;-80
2022/08/19 04:29:34;;;;;;;17.17;15.48;;;;;;;21.07;69.70;96214.97;4999484;28;20042;-80
2022/08/19 04:32:03;;;;;;;17.60;15.32;;;;;;;21.06;68.98;96210.75;4993002;28;20063;-80
2022/08/19 04:34:37;;;;;;;17.35;15.43;;;;;;;21.05;68.45;96212.59;4994303;28;20066;-82
2022/08/19 04:37:27;;;;;;;16.92;15.23;;;;;;;21.05;69.90;96217.88;4974196;28;20063;-79
2022/08/19 04:42:49;;;;;;;17.95;15.38;;;;;;;21.04;68.47;96218.16;4990447;28;20092;-81
2022/08/19 04:45:17;;;;;;;18.33;16.33;;;;;;;21.01;68.17;96216.81;5008802;28;20078;-82
2022/08/19 04:47:45;;;;;;;17.30;15.35;;;;;;;21.01;68.27;96216.81;4993651;28;20031;-82
2022/08/19 04:50:25;;;;;;;17.67;15.88;;;;;;;21.01;68.94;96214.16;4994125;28;20059;-82
2022/08/19 04:53:01;;;;;;;18.60;16.63;;;;;;;21.01;68.64;96218.66;5063017;23;20057;-81
2022/08/19 04:58:06;;;;;;;16.73;14.90;;;;;;;21.04;69.64;96236.72;5105640;23;20062;-79
2022/08/19 05:00:34;;;;;;;16.92;15.20;;;;;;;21.04;69.38;96231.44;5021525;28;20053;-81
2022/08/19 05:03:04;;;;;;;20.75;16.83;;;;;;;21.02;68.31;96239.63;5021207;28;20072;-82
2022/08/19 05:05:34;;;;;;;18.33;16.27;;;;;;;21.02;69.76;96244.94;5016156;28;20061;-81
2022/08/19 05:08:18;;;;;;;18.08;16.23;;;;;;;21.02;68.93;96254.75;5014961;28;20097;-81
2022/08/19 05:10:58;;;;;;;18.42;16.55;;;;;;;21.01;69.36;96259.22;5017587;28;20049;-80
2022/08/19 05:13:27;;;;;;;17.85;15.85;;;;;;;21.01;68.79;96263.75;5097161;23;20093;-78
2022/08/19 05:15:57;;;;;;;17.90;15.98;;;;;;;20.99;69.23;96272.75;5005454;28;20042;-80
2022/08/19 05:23:59;;;;;;;16.75;15.00;;;;;;;21.02;70.02;96291.88;4982004;28;20051;-81
2022/08/19 05:26:27;;;;;;;18.63;16.48;;;;;;;20.99;69.60;96286.03;4982334;28;20050;-82
2022/08/19 05:28:55;;;;;;;19.67;17.58;;;;;;;20.99;69.58;96288.66;4983138;28;20160;-82
2022/08/19 05:31:23;;;;;;;18.33;16.48;;;;;;;20.99;69.45;96288.66;4983272;28;20051;-82
2022/08/19 05:33:51;;;;;;;18.90;15.73;;;;;;;20.98;69.41;96287.06;4985456;28;20058;-82
2022/08/19 05:36:19;;;;;;;18.92;16.88;;;;;;;20.97;68.75;96288.13;4990518;28;20074;-82
2022/08/19 05:38:49;;;;;;;18.50;16.25;;;;;;;20.99;69.74;96288.66;4987845;28;20079;-82
2022/08/19 05:41:18;;;;;;;18.40;16.50;;;;;;;21.01;68.87;96298.22;4987220;28;20074;-82
2022/08/19 05:43:46;;;;;;;20.52;15.93;;;;;;;20.98;68.65;96292.38;4988027;28;20050;-82
2022/08/19 05:46:19;;;;;;;16.70;15.02;;;;;;;21.01;68.72;96300.88;4987920;28;20047;-82
2022/08/19 05:48:56;;;;;;;18.75;15.82;;;;;;;20.99;69.66;96301.13;4991090;28;20086;-82
2022/08/19 05:51:24;;;;;;;18.25;15.90;;;;;;;21.01;69.60;96306.16;4986588;28;20081;-84
2022/08/19 05:53:55;;;;;;;18.33;14.70;;;;;;;20.99;69.88;96307.22;4986544;28;20050;-82
2022/08/19 05:56:24;;;;;;;18.35;16.05;;;;;;;21.01;69.48;96312.25;4987688;28;20051;-82
2022/08/19 05:58:53;;;;;;;17.73;15.63;;;;;;;21.02;68.68;96305.13;4986516;28;20129;-82
2022/08/19 06:01:21;;;;;;;18.92;16.95;;;;;;;20.99;68.20;96304.59;4986773;28;20098;-82
2022/08/19 06:03:49;;;;;;;19.23;16.92;;;;;;;20.98;68.12;96308.28;4986815;28;20212;-82
2022/08/19 06:06:17;;;;;;;18.40;16.05;;;;;;;20.97;68.41;96304.03;4986071;28;20074;-82
2022/08/19 06:08:48;;;;;;;18.42;16.40;;;;;;;20.97;68.43;96304.03;4987035;28;20117;-82
2022/08/19 06:11:19;;;;;;;17.20;14.93;;;;;;;20.98;70.07;96308.28;4986766;28;20073;-82
2022/08/19 06:13:52;;;;;;;18.63;16.73;;;;;;;20.98;68.89;96305.63;4985731;28;20054;-81
2022/08/19 06:16:27;;;;;;;22.08;17.20;;;;;;;20.98;68.55;96297.66;4986846;28;20332;-82
2022/08/19 06:18:57;;;;;;;18.58;16.20;;;;;;;20.98;69.99;96300.31;4987243;28;20051;-82
2022/08/19 06:21:27;;;;;;;20.25;16.85;;;;;;;20.99;69.10;96299.28;4986666;28;20340;-82
2022/08/19 06:23:56;;;;;;;18.05;16.25;;;;;;;20.98;69.69;96292.38;4986797;28;20051;-82
2022/08/19 06:26:24;;;;;;;18.23;16.27;;;;;;;20.95;69.00;96300.84;4987455;28;20054;-82
2022/08/19 06:28:54;;;;;;;19.67;16.27;;;;;;;20.96;70.27;96298.97;4994871;28;20058;-82
2022/08/19 06:31:24;;;;;;;19.48;16.52;;;;;;;20.97;70.38;96298.72;4998922;28;20521;-82
2022/08/19 06:33:52;;;;;;;18.23;16.33;;;;;;;20.99;69.81;96304.59;4996327;28;20432;-82
2022/08/19 06:36:23;;;;;;;21.80;16.73;;;;;;;21.00;70.61;96305.38;4998877;28;20051;-82
2022/08/19 06:38:52;;;;;;;17.25;15.38;;;;;;;21.02;70.19;96302.47;4999148;28;20130;-82
2022/08/19 06:41:20;;;;;;;21.10;16.92;;;;;;;21.02;69.78;96299.81;4990642;28;20070;-82
2022/08/19 06:43:48;;;;;;;19.08;16.73;;;;;;;21.02;70.21;96310.44;4987859;28;20702;-82
2022/08/19 06:46:22;;;;;;;18.85;16.52;;;;;;;21.02;70.09;96313.09;4988307;28;20054;-82
2022/08/19 06:48:53;;;;;;;20.50;17.08;;;;;;;21.03;70.33;96312.81;4987001;28;20070;-81
2022/08/19 06:51:22;;;;;;;19.35;16.58;;;;;;;21.03;69.79;96310.16;4986410;28;20047;-82
2022/08/19 06:53:53;;;;;;;20.35;17.05;;;;;;;21.01;69.11;96306.16;4986737;28;20055;-82
2022/08/19 06:56:25;;;;;;;22.25;17.08;;;;;;;21.00;68.74;96310.69;4987478;28;20062;-82
2022/08/19 06:58:53;;;;;;;22.52;17.52;;;;;;;20.98;68.50;96310.91;4987299;28;20465;-82
2022/08/19 07:01:22;;;;;;;20.52;16.75;;;;;;;20.96;68.75;96310.38;4987528;28;20115;-82
2022/08/19 07:03:49;;;;;;;22.15;16.92;;;;;;;20.95;69.01;96315.97;4987536;28;20051;-82
2022/08/19 07:06:19;;;;;;;21.83;17.23;;;;;;;20.95;69.63;96313.31;4986036;28;20081;-82
2022/08/19 07:09:09;;;;;;;18.65;16.67;;;;;;;20.93;69.54;96313.56;4985844;28;20057;-82
2022/08/19 07:11:38;;;;;;;20.65;17.05;;;;;;;20.93;70.49;96308.25;4987899;28;20062;-82
2022/08/19 07:14:06;;;;;;;18.63;16.80;;;;;;;20.93;69.85;96316.19;4987008;28;20063;-82
2022/08/19 07:16:48;;;;;;;17.98;15.55;;;;;;;20.92;71.10;96314.59;4990049;28;20047;-82
2022/08/19 07:19:16;;;;;;;18.48;16.45;;;;;;;20.94;70.54;96311.69;4987962;28;20086;-82
2022/08/19 07:21:46;;;;;;;22.05;17.90;;;;;;;20.94;70.27;96317.00;4986580;28;20054;-82
2022/08/19 07:24:15;;;;;;;20.10;17.95;;;;;;;20.92;70.42;96319.88;4986860;28;20074;-82
2022/08/19 07:26:44;;;;;;;19.30;17.20;;;;;;;20.89;70.06;96309.81;4987984;28;20224;-82
2022/08/19 07:29:13;;;;;;;40.40;34.63;;;;;;;20.89;70.93;96317.75;4986091;28;20145;-82
2022/08/19 07:31:41;;;;;;;38.20;31.25;;;;;;;20.89;71.28;96315.09;4986788;28;20050;-82
2022/08/19 07:34:14;;;;;;;23.77;19.45;;;;;;;20.89;70.40;96328.38;4986963;28;20501;-82
2022/08/19 07:36:44;;;;;;;23.27;19.30;;;;;;;20.87;70.49;96327.03;4985700;28;20054;-82
2022/08/19 07:39:14;;;;;;;19.83;16.58;;;;;;;20.90;71.64;96337.09;4985568;28;20081;-82
2022/08/19 07:41:43;;;;;;;20.38;17.20;;;;;;;20.90;70.66;96335.28;4986919;28;20101;-82
2022/08/19 07:44:12;;;;;;;18.80;16.67;;;;;;;20.91;71.12;96338.72;4986551;28;20497;-82
2022/08/19 07:46:44;;;;;;;32.60;23.92;;;;;;;20.90;70.40;96340.59;4984619;28;20074;-82
2022/08/19 07:49:19;;;;;;;21.85;19.00;;;;;;;20.90;70.11;96347.72;4984867;28;20474;-82
2022/08/19 07:51:48;;;;;;;20.13;17.83;;;;;;;20.89;70.54;96341.63;4984447;28;20505;-82
2022/08/19 07:54:16;;;;;;;25.02;17.65;;;;;;;20.88;69.94;96341.88;4984562;28;20051;-82
2022/08/19 07:56:44;;;;;;;19.80;16.65;;;;;;;20.86;70.04;96344.78;4984116;28;20046;-82
2022/08/19 07:59:12;;;;;;;20.50;17.85;;;;;;;20.84;69.87;96344.25;4985347;28;20087;-82
2022/08/19 08:01:40;;;;;;;18.63;16.70;;;;;;;20.84;70.48;96349.53;4985216;28;20058;-82
2022/08/19 08:09:43;;;;;;;19.83;17.75;;;;;;;20.86;69.73;96336.84;4998677;28;20058;-82
2022/08/19 08:12:19;;;;;;;20.05;17.77;;;;;;;20.86;69.84;96341.31;4987508;28;20058;-81
2022/08/19 08:15:04;;;;;;;18.88;16.88;;;;;;;20.85;69.87;96345.81;4983423;28;20046;-82
2022/08/19 08:17:36;;;;;;;20.45;16.83;;;;;;;20.86;70.23;96338.66;4984208;28;20055;-82
2022/08/19 08:20:19;;;;;;;18.95;16.92;;;;;;;20.88;70.89;96334.72;4984005;28;20054;-81
2022/08/19 08:25:36;;;;;;;21.33;17.08;;;;;;;20.93;71.09;96332.09;4983704;28;20081;-82
2022/08/19 08:28:05;;;;;;;21.95;18.60;;;;;;;20.92;68.99;96335.78;5008407;23;20050;-76
2022/08/19 08:30:35;;;;;;;22.83;18.42;;;;;;;20.92;68.38;96333.16;4992450;28;20047;-76
2022/08/19 08:33:03;;;;;;;22.30;18.30;;;;;;;20.90;68.14;96337.94;4993243;28;20124;-76
2022/08/19 08:35:31;;;;;;;23.33;19.25;;;;;;;20.91;68.52;96334.22;4993044;28;20050;-76
2022/08/19 08:38:01;;;;;;;22.88;19.65;;;;;;;20.88;67.75;96340.03;4993142;28;20112;-76
2022/08/19 08:40:34;;;;;;;27.63;19.98;;;;;;;20.89;68.95;96336.31;4992968;28;20099;-76
2022/08/19 08:43:06;;;;;;;24.40;19.98;;;;;;;20.90;68.14;96332.63;4993079;28;20483;-76
2022/08/19 08:45:47;;;;;;;25.92;20.85;;;;;;;20.91;68.58;96330.78;4993072;28;20496;-76
2022/08/19 08:48:25;;;;;;;23.00;18.58;;;;;;;20.93;69.02;96336.63;4992774;28;20174;-76
2022/08/19 08:50:56;;;;;;;20.13;17.13;;;;;;;20.94;68.30;96339.00;4992548;28;20082;-76
2022/08/19 08:53:26;;;;;;;22.27;17.98;;;;;;;20.94;67.58;96344.31;4992851;28;20050;-76
2022/08/19 08:56:02;;;;;;;21.02;17.30;;;;;;;20.95;67.27;96340.59;4992682;28;20141;-76
2022/08/19 08:58:41;;;;;;;20.13;17.10;;;;;;;20.94;67.91;96340.84;4992514;28;20050;-76
2022/08/19 09:01:11;;;;;;;19.33;17.23;;;;;;;20.95;67.63;96339.81;4992595;28;20060;-76
2022/08/19 09:03:40;;;;;;;19.42;16.63;;;;;;;20.96;68.37;96344.84;4992934;28;20050;-76
2022/08/19 09:06:15;;;;;;;22.65;18.90;;;;;;;20.98;68.36;96350.69;4992528;28;20580;-76
2022/08/19 09:08:53;;;;;;;20.02;17.35;;;;;;;21.00;68.42;96342.50;4992360;28;20100;-76
2022/08/19 09:11:41;;;;;;;21.58;17.92;;;;;;;21.03;68.47;96338.53;4992529;28;20137;-76
2022/08/19 09:14:20;;;;;;;22.98;18.55;;;;;;;21.05;67.96;96339.06;4992673;28;20054;-77
2022/08/19 09:17:09;;;;;;;22.70;18.17;;;;;;;21.05;67.39;96350.47;4992528;28;20054;-76
2022/08/19 09:19:50;;;;;;;22.10;18.85;;;;;;;21.06;66.94;96349.44;4992467;28;20137;-76
2022/08/19 09:22:21;;;;;;;23.48;18.30;;;;;;;21.09;66.92;96345.47;4992521;28;20476;-76
2022/08/19 09:24:55;;;;;;;21.73;18.20;;;;;;;21.07;66.50;96352.88;4992699;28;20476;-76
2022/08/19 09:27:24;;;;;;;22.75;18.55;;;;;;;21.05;66.12;96350.47;4992486;28;20365;-76
2022/08/19 09:30:15;;;;;;;19.85;17.08;;;;;;;21.05;66.42;96347.03;4992678;28;20069;-76
2022/08/19 09:32:44;;;;;;;21.38;18.25;;;;;;;21.05;66.06;96347.03;4992559;28;20042;-76
2022/08/19 09:35:14;;;;;;;24.08;20.40;;;;;;;21.06;66.22;96348.66;4992529;28;20062;-76
2022/08/19 09:37:43;;;;;;;23.92;18.38;;;;;;;21.07;66.05;96347.59;4992050;28;20523;-76
2022/08/19 09:40:13;;;;;;;20.42;17.35;;;;;;;21.07;66.28;96343.06;4992047;28;20050;-76
2022/08/19 09:42:43;;;;;;;19.70;16.45;;;;;;;21.08;66.24;96342.03;4992749;28;20055;-76
2022/08/19 09:45:21;;;;;;;19.02;15.90;;;;;;;21.10;66.61;96341.75;4992428;28;20050;-76
2022/08/19 09:47:50;;;;;;;23.42;17.80;;;;;;;21.11;66.57;96341.50;4992363;28;20042;-76
2022/08/19 09:50:20;;;;;;;25.03;18.40;;;;;;;21.11;66.55;96338.06;4991961;28;20050;-76
2022/08/19 09:52:48;;;;;;;20.60;17.50;;;;;;;21.10;65.72;96339.09;4992105;28;20058;-76
2022/08/19 09:55:23;;;;;;;21.35;16.98;;;;;;;21.09;65.94;96340.16;4992213;28;20579;-76
2022/08/19 09:57:58;;;;;;;19.63;16.15;;;;;;;21.08;66.12;96339.38;4992426;28;20050;-76
2022/08/19 10:00:26;;;;;;;20.73;17.83;;;;;;;21.09;66.07;96345.47;5000561;28;20073;-76
2022/08/19 10:02:53;;;;;;;19.77;17.55;;;;;;;21.07;65.79;96347.59;5006406;28;20078;-76
2022/08/19 10:08:09;;;;;;;20.80;17.73;;;;;;;21.05;66.33;96352.34;4992157;28;20584;-76
2022/08/19 10:10:43;;;;;;;21.75;18.80;;;;;;;21.03;65.64;96355.22;4992094;28;20532;-76
2022/08/19 10:13:14;;;;;;;23.77;19.73;;;;;;;21.01;66.11;96352.03;4992403;28;20054;-76
2022/08/19 10:15:42;;;;;;;19.45;16.73;;;;;;;21.01;66.68;96364.50;4992126;28;20050;-77
2022/08/19 10:18:16;;;;;;;20.65;16.33;;;;;;;21.02;66.13;96374.88;4992406;28;20042;-76
2022/08/19 10:20:45;;;;;;;20.65;16.00;;;;;;;21.03;66.14;96367.69;4994969;28;20112;-76
2022/08/19 10:23:18;;;;;;;18.10;15.63;;;;;;;21.03;66.08;96375.66;4995758;28;20177;-76
2022/08/19 10:25:48;;;;;;;20.65;16.85;;;;;;;21.03;66.00;96373.00;4995764;28;20078;-76
2022/08/19 10:28:16;;;;;;;20.02;16.40;;;;;;;21.04;65.97;96364.00;4995894;28;20092;-76
2022/08/19 10:30:47;;;;;;;20.92;15.40;;;;;;;21.05;66.36;96370.91;4997168;28;20129;-77
2022/08/19 10:33:15;;;;;;;22.58;17.40;;;;;;;21.05;66.23;96370.91;4997189;28;20500;-76
2022/08/19 10:36:04;;;;;;;21.08;16.13;;;;;;;21.04;66.16;96371.97;4995740;28;20416;-76
2022/08/19 10:38:31;;;;;;;22.45;16.15;;;;;;;21.04;66.27;96377.28;4995346;28;20043;-76
2022/08/19 10:41:07;;;;;;;18.73;16.10;;;;;;;21.04;66.28;96383.38;4995466;28;20057;-76
2022/08/19 10:43:37;;;;;;;19.60;16.45;;;;;;;21.05;66.43;96382.31;4996044;28;20516;-76
2022/08/19 10:46:05;;;;;;;20.77;16.45;;;;;;;21.05;66.80;96382.31;4995410;28;20078;-76
2022/08/19 10:48:40;;;;;;;20.00;16.48;;;;;;;21.06;67.04;96383.91;4995329;28;20073;-76
2022/08/19 10:53:54;;;;;;;19.60;15.50;;;;;;;21.09;67.14;96380.75;4995524;28;20058;-76
2022/08/19 10:59:08;;;;;;;23.10;17.35;;;;;;;21.11;67.72;96381.28;4994979;28;20133;-76
2022/08/19 11:01:37;;;;;;;23.95;18.42;;;;;;;21.11;67.51;96394.56;4994905;28;20512;-76
2022/08/19 11:04:08;;;;;;;18.17;16.00;;;;;;;21.11;68.37;96391.09;4995040;28;20073;-76
2022/08/19 11:06:38;;;;;;;23.13;17.17;;;;;;;21.13;69.49;96395.09;4994989;28;20085;-76
2022/08/19 11:09:06;;;;;;;21.85;17.35;;;;;;;21.12;69.23;96392.69;4994824;28;20078;-76
2022/08/19 11:11:39;;;;;;;20.65;16.70;;;;;;;21.11;69.33;96396.41;4994444;28;20466;-76
2022/08/19 11:14:08;;;;;;;16.75;14.80;;;;;;;21.09;70.21;96388.69;4994614;28;20137;-76
2022/08/19 11:16:38;;;;;;;16.83;14.90;;;;;;;21.06;70.12;96394.53;4994897;28;20089;-76
2022/08/19 11:19:10;;;;;;;15.38;13.77;;;;;;;21.04;70.19;96387.88;4994738;28;20465;-76
2022/08/19 11:21:40;;;;;;;17.15;15.32;;;;;;;21.03;70.78;96394.22;4994405;28;20420;-76
2022/08/19 11:24:10;;;;;;;18.15;14.40;;;;;;;21.02;71.95;96388.13;4994480;28;20145;-76
2022/08/19 11:26:41;;;;;;;16.90;14.60;;;;;;;21.01;71.47;96389.16;4994270;28;20089;-76
2022/08/19 11:29:12;;;;;;;22.35;15.40;;;;;;;21.03;71.75;96383.63;4994285;28;20097;-76
2022/08/19 11:31:41;;;;;;;16.88;15.07;;;;;;;21.01;71.90;96391.03;4994243;28;20120;-76
2022/08/19 11:34:11;;;;;;;30.85;18.25;;;;;;;21.01;72.14;96393.66;4994240;28;20149;-76
2022/08/19 11:36:42;;;;;;;18.30;16.25;;;;;;;21.02;72.31;96392.63;4994264;28;20062;-76
2022/08/19 11:39:11;;;;;;;21.00;16.70;;;;;;;21.00;72.34;96390.22;4994358;28;20782;-76
2022/08/19 11:41:40;;;;;;;19.65;15.30;;;;;;;20.97;72.85;96380.94;4994074;28;20065;-76
2022/08/19 11:44:08;;;;;;;18.40;16.38;;;;;;;20.96;73.38;96384.63;4994235;28;20050;-76
2022/08/19 11:46:37;;;;;;;18.13;16.13;;;;;;;20.94;72.74;96392.03;4994013;28;20085;-76
2022/08/19 11:49:07;;;;;;;17.60;15.30;;;;;;;20.92;72.79;96394.13;4994188;28;20092;-76
2022/08/19 11:51:41;;;;;;;20.30;15.77;;;;;;;20.89;72.75;96388.53;4993566;28;20440;-76
2022/08/19 11:54:09;;;;;;;19.98;16.17;;;;;;;20.88;72.97;96387.75;4994165;28;20105;-76
2022/08/19 11:56:38;;;;;;;21.10;17.20;;;;;;;20.87;72.89;96391.44;4994211;28;20133;-76
2022/08/19 11:59:07;;;;;;;22.65;18.27;;;;;;;20.83;73.21;96392.19;4993679;28;20568;-76
2022/08/19 12:01:42;;;;;;;21.58;18.17;;;;;;;20.79;73.06;96389.25;4993439;28;20054;-76
2022/08/19 12:04:10;;;;;;;22.42;17.85;;;;;;;20.77;73.78;96391.34;4993568;28;20459;-76
2022/08/19 12:06:40;;;;;;;20.42;17.33;;;;;;;20.74;73.35;96391.84;4993751;28;20463;-76
2022/08/19 12:09:10;;;;;;;20.67;17.17;;;;;;;20.72;73.78;96393.97;4993672;28;20101;-76